Time;durP1;ratioP1;P1;durP2;ratioP2;P2;SDS_P1;SDS_P2;PMS_P1;PMS_P2;Temp;Humidity;BMP_temperature;BMP_pressure;BME280_temperature;BME280_humidity;BME280_pressure;Samples;Min_cycle;Max_cycle;Signal;HPM_P1;HPM_P2
2022/11/21 00:00:16;;;;;;;35.43;20.97;;;4.70;96.50;;;;;;4981822;28;20044;-78
2022/11/21 00:02:41;;;;;;;34.13;19.30;;;4.70;96.50;;;;;;4998528;28;20034;-78
2022/11/21 00:05:07;;;;;;;35.73;19.93;;;4.70;96.50;;;;;;5016241;28;20080;-78
2022/11/21 00:07:33;;;;;;;35.10;21.53;;;4.60;96.50;;;;;;4982109;28;20030;-78
2022/11/21 00:09:58;;;;;;;36.70;21.03;;;4.60;96.60;;;;;;4998699;28;20037;-78
2022/11/21 00:12:24;;;;;;;33.97;20.13;;;4.60;96.70;;;;;;4981418;28;20022;-78
2022/11/21 00:14:50;;;;;;;35.70;20.73;;;4.60;96.60;;;;;;5015006;28;20136;-78
2022/11/21 00:17:16;;;;;;;34.43;19.63;;;4.60;96.60;;;;;;4981776;28;20041;-78
2022/11/21 00:19:41;;;;;;;35.43;20.37;;;4.60;96.60;;;;;;4998608;28;20034;-77
2022/11/21 00:22:07;;;;;;;34.83;19.90;;;4.60;96.60;;;;;;4998182;28;20390;-78
2022/11/21 00:24:32;;;;;;;34.30;20.03;;;4.60;96.50;;;;;;5015722;28;20112;-78
2022/11/21 00:26:58;;;;;;;35.97;20.90;;;4.60;96.50;;;;;;4981422;28;20103;-78
2022/11/21 00:29:24;;;;;;;32.43;19.20;;;4.60;96.60;;;;;;4998559;28;20040;-79
2022/11/21 00:31:49;;;;;;;33.77;19.50;;;4.60;96.50;;;;;;4982004;28;20026;-78
2022/11/21 00:34:15;;;;;;;32.47;19.40;;;4.60;96.50;;;;;;4981711;28;20485;-78
2022/11/21 00:36:41;;;;;;;31.70;18.87;;;4.70;96.50;;;;;;4981863;28;20068;-79
2022/11/21 00:39:07;;;;;;;33.37;18.83;;;4.60;96.50;;;;;;4997542;28;20493;-78
2022/11/21 00:41:33;;;;;;;34.23;19.73;;;4.60;96.80;;;;;;4997336;28;20030;-79
2022/11/21 00:43:58;;;;;;;33.63;19.00;;;4.60;96.50;;;;;;4997482;28;20030;-78
2022/11/21 00:46:24;;;;;;;29.83;18.07;;;4.60;96.60;;;;;;4981655;28;20068;-78
2022/11/21 00:48:50;;;;;;;33.83;20.23;;;4.60;96.60;;;;;;5014939;28;20474;-79
2022/11/21 00:51:16;;;;;;;28.27;17.20;;;4.70;96.60;;;;;;4997372;28;20025;-78
2022/11/21 00:53:41;;;;;;;31.87;18.90;;;4.60;96.60;;;;;;4997524;28;20029;-78
2022/11/21 00:56:07;;;;;;;35.40;19.27;;;4.60;96.60;;;;;;4997207;28;20482;-79
2022/11/21 00:58:33;;;;;;;28.13;17.13;;;4.60;96.60;;;;;;4981544;28;20033;-79
2022/11/21 01:01:10;;;;;;;30.30;17.67;;;4.60;96.60;;;;;;4980892;28;20371;-78
2022/11/21 01:03:36;;;;;;;33.50;18.70;;;4.60;96.60;;;;;;5013904;28;20482;-78
2022/11/21 01:06:10;;;;;;;30.53;18.47;;;4.60;96.60;;;;;;4997117;28;20033;-79
2022/11/21 01:08:38;;;;;;;30.35;17.73;;;4.60;96.60;;;;;;5014560;28;20033;-78
2022/11/21 01:11:06;;;;;;;32.10;18.03;;;4.60;96.60;;;;;;4981208;28;20053;-78
2022/11/21 01:13:33;;;;;;;32.93;19.07;;;4.60;96.60;;;;;;4996422;28;20046;-78
2022/11/21 01:16:14;;;;;;;31.53;18.30;;;4.50;96.60;;;;;;4997318;28;20379;-78
2022/11/21 01:18:40;;;;;;;30.00;17.30;;;4.60;96.60;;;;;;5014526;28;20097;-78
2022/11/21 01:21:18;;;;;;;34.87;19.60;;;4.60;96.70;;;;;;4997370;28;20053;-78
2022/11/21 01:23:44;;;;;;;31.03;18.27;;;4.60;96.70;;;;;;5014945;28;20061;-79
2022/11/21 01:26:12;;;;;;;31.33;18.57;;;4.60;96.70;;;;;;5014229;28;20064;-78
2022/11/21 01:28:38;;;;;;;31.40;18.60;;;4.60;96.70;;;;;;5014736;28;20474;-79
2022/11/21 01:31:07;;;;;;;33.27;19.10;;;4.70;96.70;;;;;;4996844;28;20033;-79
2022/11/21 01:33:33;;;;;;;34.20;20.27;;;4.60;96.70;;;;;;4996721;28;20042;-78
2022/11/21 01:36:13;;;;;;;34.27;18.77;;;4.60;96.70;;;;;;4996507;28;20026;-79
2022/11/21 01:38:40;;;;;;;36.20;19.97;;;4.60;96.70;;;;;;5014409;28;20030;-78
2022/11/21 01:41:06;;;;;;;34.37;19.77;;;4.60;96.70;;;;;;4996657;28;20037;-78
2022/11/21 01:43:32;;;;;;;36.97;21.10;;;4.60;96.70;;;;;;4996321;28;20026;-77
2022/11/21 01:46:07;;;;;;;37.37;20.13;;;4.60;96.70;;;;;;4996757;28;20378;-78
2022/11/21 01:49:10;;;;;;;39.50;21.00;;;4.60;96.70;;;;;;5013295;28;20192;-78
2022/11/21 01:52:00;;;;;;;42.93;20.87;;;4.60;96.70;;;;;;5014436;28;20029;-78
2022/11/21 01:54:28;;;;;;;35.87;19.10;;;4.60;96.60;;;;;;5013716;28;20121;-78
2022/11/21 01:57:00;;;;;;;35.17;19.67;;;4.60;96.50;;;;;;5012791;28;20036;-77
2022/11/21 01:59:28;;;;;;;36.30;20.13;;;4.60;96.50;;;;;;4996439;28;20117;-78
2022/11/21 02:01:55;;;;;;;37.40;19.80;;;4.60;96.50;;;;;;5012446;28;20034;-78
2022/11/21 02:04:23;;;;;;;35.90;21.73;;;4.50;96.50;;;;;;5013270;28;20030;-78
2022/11/21 02:06:50;;;;;;;37.67;20.90;;;4.50;96.60;;;;;;4996397;28;20413;-78
2022/11/21 02:09:17;;;;;;;38.73;22.07;;;4.50;96.60;;;;;;4980323;28;20046;-77
2022/11/21 02:11:58;;;;;;;34.63;20.33;;;4.50;96.60;;;;;;4980309;28;20037;-78
2022/11/21 02:14:24;;;;;;;34.60;19.77;;;4.50;96.70;;;;;;5012830;28;20054;-78
2022/11/21 02:16:50;;;;;;;36.13;20.40;;;4.50;96.70;;;;;;5013733;28;20037;-79
2022/11/21 02:19:28;;;;;;;35.53;21.37;;;4.60;96.70;;;;;;4979546;28;20394;-78
2022/11/21 02:22:03;;;;;;;35.30;20.03;;;4.50;96.70;;;;;;4996120;28;20022;-78
2022/11/21 02:24:43;;;;;;;34.97;19.80;;;4.60;96.60;;;;;;4995737;28;20030;-78
2022/11/21 02:27:09;;;;;;;32.50;18.20;;;4.50;96.60;;;;;;5013339;28;20097;-78
2022/11/21 02:29:35;;;;;;;32.00;18.80;;;4.50;96.60;;;;;;4995804;28;20121;-78
2022/11/21 02:32:05;;;;;;;32.57;18.23;;;4.50;96.70;;;;;;4979578;28;20030;-79
2022/11/21 02:34:31;;;;;;;35.83;20.10;;;4.50;96.70;;;;;;5013201;28;20565;-78
2022/11/21 02:36:58;;;;;;;34.33;20.40;;;4.50;96.80;;;;;;4995927;28;20022;-78
2022/11/21 02:39:35;;;;;;;35.87;20.00;;;4.50;96.70;;;;;;4995894;28;20018;-78
2022/11/21 02:42:19;;;;;;;38.90;20.37;;;4.60;96.70;;;;;;4995585;28;20022;-78
2022/11/21 02:45:15;;;;;;;37.80;20.38;;;4.50;96.70;;;;;;5011798;28;20392;-78
2022/11/21 02:47:42;;;;;;;36.80;20.70;;;4.50;96.70;;;;;;4994989;28;20493;-78
2022/11/21 02:50:27;;;;;;;34.27;19.73;;;4.50;96.70;;;;;;4979568;28;20117;-79
2022/11/21 02:52:54;;;;;;;36.37;20.83;;;4.50;96.80;;;;;;5014824;28;20018;-79
2022/11/21 02:55:20;;;;;;;44.07;22.40;;;4.50;96.70;;;;;;5032229;28;20041;-78
2022/11/21 02:57:45;;;;;;;43.43;21.67;;;4.50;96.80;;;;;;4999014;28;20080;-79
2022/11/21 03:00:12;;;;;;;43.33;22.63;;;4.50;96.80;;;;;;5015041;28;20036;-79
2022/11/21 03:02:37;;;;;;;41.73;22.80;;;4.50;96.80;;;;;;5033025;28;20104;-78
2022/11/21 03:05:05;;;;;;;43.83;23.23;;;4.50;96.80;;;;;;4998702;28;20057;-78
2022/11/21 03:07:31;;;;;;;42.23;22.23;;;4.50;96.80;;;;;;5014803;28;20028;-77
2022/11/21 03:09:57;;;;;;;41.20;22.47;;;4.50;96.80;;;;;;5032790;28;20021;-77
2022/11/21 03:12:22;;;;;;;44.70;22.77;;;4.40;96.80;;;;;;5015498;28;20052;-77
2022/11/21 03:14:48;;;;;;;44.97;22.63;;;4.50;96.90;;;;;;5030942;28;20057;-77
2022/11/21 03:17:14;;;;;;;45.37;23.03;;;4.40;96.80;;;;;;5018227;28;20033;-77
2022/11/21 03:19:39;;;;;;;45.80;22.67;;;4.40;96.80;;;;;;5019176;28;20084;-77
2022/11/21 03:22:05;;;;;;;44.23;22.37;;;4.40;96.90;;;;;;5001884;28;20124;-77
2022/11/21 03:24:30;;;;;;;40.60;22.07;;;4.40;96.90;;;;;;5002679;28;20028;-77
2022/11/21 03:26:56;;;;;;;47.63;23.20;;;4.40;97.00;;;;;;4986205;28;20405;-77
2022/11/21 03:29:21;;;;;;;45.23;23.63;;;4.50;97.00;;;;;;5036026;28;20040;-77
2022/11/21 03:31:47;;;;;;;42.13;22.40;;;4.40;96.90;;;;;;5002391;28;20033;-77
2022/11/21 03:34:13;;;;;;;45.77;23.63;;;4.50;96.90;;;;;;5018665;28;20037;-77
2022/11/21 03:36:38;;;;;;;44.83;23.20;;;4.40;96.90;;;;;;5002379;28;20032;-77
2022/11/21 03:39:04;;;;;;;48.37;23.73;;;4.40;96.80;;;;;;5018680;28;20390;-77
2022/11/21 03:41:30;;;;;;;47.63;24.33;;;4.40;96.90;;;;;;5018590;28;20025;-78
2022/11/21 03:43:59;;;;;;;42.90;22.87;;;4.50;97.00;;;;;;5018089;28;20045;-78
2022/11/21 03:46:26;;;;;;;46.13;22.30;;;4.50;96.90;;;;;;5002858;28;20030;-78
2022/11/21 03:48:52;;;;;;;48.20;24.77;;;4.40;96.90;;;;;;5001781;28;20060;-78
2022/11/21 03:51:19;;;;;;;43.33;22.90;;;4.40;96.90;;;;;;5018449;28;20033;-79
2022/11/21 03:53:44;;;;;;;44.50;22.50;;;4.40;96.80;;;;;;5018506;28;20033;-78
2022/11/21 03:56:10;;;;;;;44.60;22.00;;;4.40;96.80;;;;;;5018315;28;20033;-78
2022/11/21 03:58:36;;;;;;;42.37;20.83;;;4.40;96.80;;;;;;5036423;28;20048;-79
2022/11/21 04:01:02;;;;;;;46.07;22.80;;;4.30;96.80;;;;;;4985361;28;20467;-79
2022/11/21 04:03:27;;;;;;;42.20;21.57;;;4.40;97.00;;;;;;5018083;28;20025;-79
2022/11/21 04:05:53;;;;;;;47.33;23.67;;;4.40;97.20;;;;;;5035683;28;20108;-77
2022/11/21 04:08:19;;;;;;;46.23;22.83;;;4.40;97.00;;;;;;5018290;28;20399;-78
2022/11/21 04:10:49;;;;;;;48.43;24.83;;;4.40;97.00;;;;;;5017867;28;20041;-78
2022/11/21 04:13:14;;;;;;;41.07;20.83;;;4.40;97.00;;;;;;5017417;28;20025;-78
2022/11/21 04:15:41;;;;;;;41.97;21.13;;;4.30;96.80;;;;;;4985526;28;20569;-78
2022/11/21 04:18:07;;;;;;;42.87;21.90;;;4.30;96.90;;;;;;5017906;28;20083;-78
2022/11/21 04:20:32;;;;;;;42.00;21.67;;;4.30;97.00;;;;;;5018348;28;20061;-77
2022/11/21 04:22:58;;;;;;;43.43;21.67;;;4.30;97.00;;;;;;5035505;28;20072;-78
2022/11/21 04:25:23;;;;;;;43.50;20.97;;;4.30;97.00;;;;;;4999485;28;20025;-78
2022/11/21 04:27:49;;;;;;;44.20;21.83;;;4.30;97.00;;;;;;5016392;28;20025;-78
2022/11/21 04:30:15;;;;;;;41.67;20.77;;;4.30;97.00;;;;;;5017444;28;20041;-77
2022/11/21 04:32:40;;;;;;;38.53;19.73;;;4.30;97.10;;;;;;5017537;28;20148;-78
2022/11/21 04:35:07;;;;;;;42.80;22.03;;;4.30;97.10;;;;;;5001124;28;20500;-78
2022/11/21 04:37:32;;;;;;;40.47;21.10;;;4.30;97.10;;;;;;5000931;28;20129;-79
2022/11/21 04:39:58;;;;;;;42.50;21.93;;;4.30;97.10;;;;;;5017839;28;20499;-77
2022/11/21 04:42:24;;;;;;;43.30;22.40;;;4.30;97.10;;;;;;5035362;28;20037;-77
2022/11/21 04:44:49;;;;;;;44.83;22.37;;;4.30;97.40;;;;;;5001124;28;20334;-77
2022/11/21 04:47:15;;;;;;;40.80;21.63;;;4.30;97.10;;;;;;5000574;28;20390;-77
2022/11/21 04:49:40;;;;;;;41.80;21.90;;;4.30;97.10;;;;;;5035055;28;20378;-77
2022/11/21 04:52:06;;;;;;;45.77;21.80;;;4.30;97.10;;;;;;4998916;28;20041;-78
2022/11/21 04:54:32;;;;;;;38.67;21.40;;;4.20;97.10;;;;;;5013785;28;20050;-78
2022/11/21 04:56:57;;;;;;;38.23;20.70;;;4.20;97.30;;;;;;4997211;28;20018;-78
2022/11/21 04:59:23;;;;;;;39.47;20.57;;;4.30;97.30;;;;;;4997436;28;20057;-79
2022/11/21 05:01:48;;;;;;;41.93;20.83;;;4.30;97.20;;;;;;4997419;28;20044;-78
2022/11/21 05:04:14;;;;;;;39.27;21.30;;;4.30;97.30;;;;;;4981229;28;20033;-78
2022/11/21 05:06:40;;;;;;;41.13;21.90;;;4.30;97.30;;;;;;4997858;28;20034;-79
2022/11/21 05:09:05;;;;;;;46.77;22.50;;;4.30;97.40;;;;;;4997592;28;20033;-78
2022/11/21 05:14:15;;;;;;;44.75;20.63;;;4.30;97.30;;;;;;5015246;28;20064;-77
2022/11/21 05:16:40;;;;;;;48.17;22.13;;;4.20;97.30;;;;;;4997538;28;20481;-78
2022/11/21 05:19:07;;;;;;;48.03;23.87;;;4.20;97.30;;;;;;4997674;28;20033;-79
2022/11/21 05:21:33;;;;;;;46.37;22.40;;;4.20;97.40;;;;;;4997516;28;20030;-77
2022/11/21 05:23:58;;;;;;;48.10;22.47;;;4.20;97.40;;;;;;4980905;28;20490;-78
2022/11/21 05:26:24;;;;;;;42.27;21.10;;;4.20;97.40;;;;;;4997133;28;20470;-77
2022/11/21 05:28:50;;;;;;;45.53;21.77;;;4.20;97.50;;;;;;4996925;28;20052;-78
2022/11/21 05:31:15;;;;;;;48.00;22.80;;;4.40;97.60;;;;;;4980793;28;20143;-77
2022/11/21 05:33:41;;;;;;;49.30;22.27;;;4.30;97.60;;;;;;4996701;28;20474;-78
2022/11/21 05:36:06;;;;;;;50.17;23.23;;;4.30;97.70;;;;;;4997034;28;20478;-78
2022/11/21 05:38:32;;;;;;;47.60;24.27;;;4.30;97.80;;;;;;4980426;28;20436;-78
2022/11/21 05:40:58;;;;;;;49.43;23.47;;;4.30;97.80;;;;;;4980525;28;20113;-78
2022/11/21 05:46:07;;;;;;;40.25;17.55;;;4.40;97.90;;;;;;4999742;28;20041;-78
2022/11/21 05:48:35;;;;;;;45.77;22.77;;;4.30;97.90;;;;;;4996855;28;20029;-78
2022/11/21 05:51:01;;;;;;;47.20;22.07;;;4.30;97.80;;;;;;4996817;28;20029;-78
2022/11/21 05:53:27;;;;;;;54.97;23.90;;;4.30;97.80;;;;;;4996696;28;20036;-78
2022/11/21 05:55:52;;;;;;;49.77;22.47;;;4.40;97.90;;;;;;4996483;28;20390;-78
2022/11/21 05:58:18;;;;;;;53.03;23.33;;;4.30;97.90;;;;;;5013600;28;20022;-78
2022/11/21 06:00:44;;;;;;;52.10;26.00;;;4.30;97.90;;;;;;5014589;28;20028;-79
2022/11/21 06:06:09;;;;;;;52.00;24.33;;;4.40;97.90;;;;;;5028145;28;20105;-79
2022/11/21 06:08:41;;;;;;;54.07;24.23;;;4.40;98.00;;;;;;5006662;28;20481;-78
2022/11/21 06:11:08;;;;;;;50.13;24.77;;;4.40;98.00;;;;;;5000568;28;20495;-78
2022/11/21 06:13:35;;;;;;;61.57;24.63;;;4.40;97.90;;;;;;5009585;28;20049;-78
2022/11/21 06:16:09;;;;;;;55.60;25.67;;;4.40;98.00;;;;;;5007539;28;20038;-78
2022/11/21 06:18:40;;;;;;;49.23;23.60;;;4.40;98.00;;;;;;5023440;28;20020;-78
2022/11/21 06:21:27;;;;;;;48.60;23.00;;;4.40;98.00;;;;;;5012046;28;20061;-80
2022/11/21 06:23:54;;;;;;;56.47;24.13;;;4.40;98.10;;;;;;5049328;28;20065;-77
2022/11/21 06:26:22;;;;;;;53.17;24.50;;;4.40;98.30;;;;;;5030956;28;20025;-77
2022/11/21 06:28:48;;;;;;;53.50;23.10;;;4.40;98.40;;;;;;5024558;28;20029;-79
2022/11/21 06:31:17;;;;;;;50.27;24.30;;;4.50;98.40;;;;;;5023423;28;20033;-77
2022/11/21 06:33:43;;;;;;;47.70;22.70;;;4.50;98.40;;;;;;5022728;28;20500;-78
2022/11/21 06:36:15;;;;;;;51.23;22.73;;;4.40;98.30;;;;;;5023314;28;20025;-78
2022/11/21 06:38:41;;;;;;;49.60;23.27;;;4.40;98.20;;;;;;5040166;28;20022;-79
2022/11/21 06:41:13;;;;;;;48.23;23.37;;;4.40;98.20;;;;;;5042234;28;20025;-78
2022/11/21 06:43:39;;;;;;;49.77;22.63;;;4.40;98.30;;;;;;5020706;28;20053;-79
2022/11/21 06:46:05;;;;;;;46.57;22.17;;;4.40;98.40;;;;;;5023140;28;20018;-78
2022/11/21 06:48:32;;;;;;;46.77;22.53;;;4.40;98.40;;;;;;5023427;28;20091;-78
2022/11/21 06:51:02;;;;;;;51.07;22.83;;;4.40;98.40;;;;;;5020059;28;20017;-79
2022/11/21 06:53:27;;;;;;;50.43;22.80;;;4.50;98.50;;;;;;5023941;28;20018;-78
2022/11/21 06:55:56;;;;;;;46.57;21.03;;;4.50;98.50;;;;;;5023402;28;20087;-78
2022/11/21 06:58:22;;;;;;;50.40;21.93;;;4.50;98.50;;;;;;5025224;28;20029;-78
2022/11/21 07:00:48;;;;;;;47.77;22.27;;;4.50;98.50;;;;;;5014915;28;20163;-78
2022/11/21 07:03:13;;;;;;;41.67;20.57;;;4.50;98.50;;;;;;5035230;28;20033;-80
2022/11/21 07:05:39;;;;;;;47.23;22.23;;;4.50;98.50;;;;;;5002271;28;20035;-79
2022/11/21 07:08:04;;;;;;;54.77;25.07;;;4.50;98.50;;;;;;5034965;28;20025;-79
2022/11/21 07:10:30;;;;;;;47.13;22.87;;;4.50;98.50;;;;;;5010876;28;20032;-79
2022/11/21 07:15:41;;;;;;;52.57;24.60;;;4.60;98.60;;;;;;5011783;28;20061;-79
2022/11/21 07:18:07;;;;;;;51.93;24.67;;;4.60;98.70;;;;;;5011511;28;20018;-79
2022/11/21 07:20:33;;;;;;;55.63;25.90;;;4.60;98.60;;;;;;4995199;28;20040;-78
2022/11/21 07:22:59;;;;;;;55.63;25.90;;;4.50;98.60;;;;;;5012792;28;20080;-78
2022/11/21 07:25:25;;;;;;;54.93;24.63;;;4.50;98.60;;;;;;4995475;28;20488;-79
2022/11/21 07:27:51;;;;;;;52.67;24.73;;;4.50;98.70;;;;;;5011361;28;20053;-79
2022/11/21 07:30:17;;;;;;;51.27;23.20;;;4.50;98.60;;;;;;4995682;28;20033;-78
2022/11/21 07:32:43;;;;;;;48.67;24.67;;;4.50;98.70;;;;;;4997703;28;20420;-79
2022/11/21 07:35:09;;;;;;;45.67;22.27;;;4.50;98.60;;;;;;5014935;28;20042;-79
2022/11/21 07:37:39;;;;;;;43.47;20.87;;;4.50;98.60;;;;;;5046926;28;20393;-78
2022/11/21 07:40:05;;;;;;;48.20;22.07;;;4.60;98.70;;;;;;5042872;28;20079;-78
2022/11/21 07:42:34;;;;;;;45.97;22.93;;;4.60;98.70;;;;;;5002840;28;20057;-78
2022/11/21 07:45:00;;;;;;;47.73;22.90;;;4.70;98.80;;;;;;5011887;28;20030;-78
2022/11/21 07:47:25;;;;;;;41.90;21.53;;;4.60;98.80;;;;;;4997096;28;20386;-77
2022/11/21 07:49:51;;;;;;;42.70;20.17;;;4.60;98.90;;;;;;4987204;28;20022;-78
2022/11/21 07:52:16;;;;;;;42.40;21.30;;;4.60;98.90;;;;;;5032413;28;20381;-77
2022/11/21 07:54:42;;;;;;;44.93;22.73;;;4.70;99.00;;;;;;4994343;28;20046;-77
2022/11/21 07:57:08;;;;;;;43.40;22.57;;;4.70;99.20;;;;;;4978787;28;20479;-80
2022/11/21 07:59:33;;;;;;;40.83;21.90;;;4.70;99.30;;;;;;4977607;28;20030;-76
2022/11/21 08:01:59;;;;;;;41.93;21.17;;;4.80;99.30;;;;;;5013882;28;20037;-77
2022/11/21 08:04:25;;;;;;;41.67;21.37;;;4.80;99.20;;;;;;4982383;28;20073;-76
2022/11/21 08:06:51;;;;;;;36.67;18.23;;;4.80;99.20;;;;;;4998510;28;20398;-77
2022/11/21 08:09:16;;;;;;;33.07;18.27;;;4.80;99.20;;;;;;4998195;28;20052;-77
2022/11/21 08:11:42;;;;;;;36.27;18.90;;;4.80;99.10;;;;;;5015756;28;20050;-76
2022/11/21 08:14:08;;;;;;;37.37;20.47;;;4.90;99.10;;;;;;5014127;28;20053;-76
2022/11/21 08:16:33;;;;;;;35.47;18.97;;;4.90;99.10;;;;;;4998280;28;20427;-76
2022/11/21 08:18:59;;;;;;;37.53;18.33;;;4.90;99.10;;;;;;4998013;28;20022;-78
2022/11/21 08:21:25;;;;;;;33.80;18.20;;;4.90;99.10;;;;;;5009231;28;20021;-76
2022/11/21 08:23:51;;;;;;;38.30;19.50;;;4.90;99.20;;;;;;5014062;28;20083;-77
2022/11/21 08:26:17;;;;;;;34.10;18.87;;;4.90;99.20;;;;;;5016234;28;20029;-77
2022/11/21 08:28:43;;;;;;;34.00;17.83;;;4.90;99.20;;;;;;4997406;28;20397;-78
2022/11/21 08:31:08;;;;;;;36.87;19.07;;;5.00;99.20;;;;;;4997936;28;20128;-78
2022/11/21 08:33:34;;;;;;;35.20;18.67;;;5.00;99.30;;;;;;5013821;28;20026;-77
2022/11/21 08:36:06;;;;;;;31.77;18.03;;;5.00;99.20;;;;;;5015588;28;20058;-76
2022/11/21 08:38:32;;;;;;;37.20;17.67;;;5.00;99.20;;;;;;4997238;28;20032;-78
2022/11/21 08:43:42;;;;;;;40.87;19.33;;;5.00;99.20;;;;;;5014997;28;20044;-79
2022/11/21 08:46:08;;;;;;;33.90;17.73;;;5.00;99.20;;;;;;4997330;28;20486;-79
2022/11/21 08:48:34;;;;;;;44.83;19.80;;;5.10;99.20;;;;;;4997231;28;20111;-79
2022/11/21 08:50:59;;;;;;;41.07;19.80;;;5.10;99.30;;;;;;5013332;28;20418;-80
2022/11/21 08:53:25;;;;;;;41.43;19.93;;;5.10;99.30;;;;;;4997786;28;20034;-78
2022/11/21 08:55:53;;;;;;;44.00;19.67;;;5.20;99.30;;;;;;5019266;28;20189;-77
2022/11/21 08:58:18;;;;;;;41.50;19.50;;;5.20;99.30;;;;;;5036164;28;20281;-76
2022/11/21 09:00:44;;;;;;;45.57;19.57;;;5.20;99.30;;;;;;5036436;28;20539;-77
2022/11/21 09:03:10;;;;;;;43.03;20.00;;;5.20;99.30;;;;;;5020216;28;20029;-77
2022/11/21 09:05:35;;;;;;;42.53;19.30;;;5.30;99.40;;;;;;5020017;28;20123;-77
2022/11/21 09:08:01;;;;;;;38.40;19.87;;;5.30;99.50;;;;;;5020054;28;20119;-76
2022/11/21 09:10:27;;;;;;;44.93;20.80;;;5.40;99.50;;;;;;5036663;28;20022;-77
2022/11/21 09:12:56;;;;;;;47.60;20.10;;;5.40;99.50;;;;;;5017525;28;20039;-76
2022/11/21 09:18:06;;;;;;;38.22;18.38;;;5.50;99.60;;;;;;5034456;28;20049;-76
2022/11/21 09:20:37;;;;;;;42.20;19.63;;;5.50;99.60;;;;;;5016279;28;20030;-76
2022/11/21 09:23:10;;;;;;;41.83;19.57;;;5.50;99.60;;;;;;5034228;28;20079;-76
2022/11/21 09:25:37;;;;;;;45.45;19.83;;;5.50;99.60;;;;;;5016572;28;20025;-76
2022/11/21 09:28:04;;;;;;;51.33;20.67;;;5.50;99.60;;;;;;5034071;28;20022;-77
2022/11/21 09:30:30;;;;;;;53.07;20.03;;;5.60;99.70;;;;;;5016311;28;20029;-76
2022/11/21 09:33:03;;;;;;;46.83;20.03;;;5.60;99.70;;;;;;5016416;28;20032;-76
2022/11/21 09:35:30;;;;;;;45.58;20.50;;;5.60;99.80;;;;;;5021433;28;20036;-76
2022/11/21 09:37:55;;;;;;;44.40;19.70;;;5.60;99.90;;;;;;5031713;28;20024;-76
2022/11/21 09:40:22;;;;;;;48.17;21.63;;;5.70;99.90;;;;;;5003290;28;20454;-76
2022/11/21 09:43:12;;;;;;;46.87;20.67;;;5.80;99.90;;;;;;5026819;28;20053;-79
2022/11/21 09:45:47;;;;;;;56.33;22.40;;;5.90;99.90;;;;;;5027031;28;20564;-78
2022/11/21 09:48:44;;;;;;;48.93;21.73;;;5.90;99.90;;;;;;5035873;28;20025;-79
2022/11/21 09:51:13;;;;;;;53.07;22.10;;;5.90;99.90;;;;;;5034564;28;20052;-78
2022/11/21 09:53:58;;;;;;;48.17;22.13;;;6.00;99.90;;;;;;4988122;28;20030;-79
2022/11/21 09:56:25;;;;;;;55.15;21.48;;;6.00;99.90;;;;;;4996347;28;20022;-78
2022/11/21 09:59:05;;;;;;;54.03;22.70;;;6.10;99.90;;;;;;4995948;28;20422;-78
2022/11/21 10:01:31;;;;;;;52.73;22.93;;;6.10;99.90;;;;;;5014002;28;20022;-80
2022/11/21 10:04:00;;;;;;;50.73;22.53;;;6.10;99.90;;;;;;4979771;28;20470;-79
2022/11/21 10:06:30;;;;;;;42.70;21.83;;;6.10;99.90;;;;;;5013812;28;20037;-79
2022/11/21 10:09:17;;;;;;;42.57;20.67;;;6.20;99.90;;;;;;4996008;28;20025;-79
2022/11/21 10:12:35;;;;;;;45.90;20.73;;;6.30;99.90;;;;;;4996168;28;20030;-79
2022/11/21 10:15:16;;;;;;;45.10;19.90;;;6.30;99.90;;;;;;4996735;28;20088;-79
2022/11/21 10:18:19;;;;;;;44.30;21.20;;;6.40;99.90;;;;;;5015411;28;20088;-79
2022/11/21 10:21:17;;;;;;;47.90;20.80;;;6.40;99.90;;;;;;5012186;28;20022;-78
2022/11/21 10:23:57;;;;;;;45.57;22.13;;;6.40;99.90;;;;;;5013802;28;20481;-78
2022/11/21 10:26:41;;;;;;;46.23;21.20;;;6.40;99.90;;;;;;5011620;28;20062;-79
2022/11/21 10:29:28;;;;;;;36.53;16.67;;;6.40;99.90;;;;;;5011891;28;20037;-78
2022/11/21 10:31:56;;;;;;;39.07;20.10;;;6.50;99.90;;;;;;5012692;28;20034;-79
2022/11/21 10:34:28;;;;;;;45.60;21.87;;;6.50;99.90;;;;;;5012078;28;20045;-78
2022/11/21 10:37:25;;;;;;;44.73;23.33;;;6.50;99.90;;;;;;5012951;28;20029;-79
2022/11/21 10:39:53;;;;;;;45.27;22.27;;;6.60;99.90;;;;;;5012068;28;20030;-78
2022/11/21 10:42:50;;;;;;;40.67;21.23;;;6.60;99.90;;;;;;5012060;28;20113;-80
2022/11/21 10:45:16;;;;;;;43.73;20.90;;;6.60;99.90;;;;;;5008545;28;20030;-79
2022/11/21 10:47:43;;;;;;;43.43;20.57;;;6.70;99.90;;;;;;5011995;28;20033;-79
2022/11/21 10:50:09;;;;;;;43.63;22.03;;;6.60;99.90;;;;;;5013439;28;20026;-82
2022/11/21 10:52:44;;;;;;;47.97;22.87;;;6.70;99.90;;;;;;5012251;28;20022;-81
2022/11/21 10:55:12;;;;;;;43.37;21.33;;;6.70;99.90;;;;;;5013231;28;20125;-77
2022/11/21 10:57:44;;;;;;;49.00;24.60;;;6.70;99.90;;;;;;5013216;28;20540;-77
2022/11/21 11:00:12;;;;;;;48.00;23.17;;;6.80;99.90;;;;;;5011773;28;20030;-78
2022/11/21 11:02:40;;;;;;;42.27;21.83;;;6.80;99.90;;;;;;5011317;28;20022;-77
2022/11/21 11:05:15;;;;;;;42.17;22.13;;;6.80;99.90;;;;;;5011764;28;20537;-79
2022/11/21 11:07:42;;;;;;;45.30;22.10;;;6.90;99.90;;;;;;5011573;28;20034;-79
2022/11/21 11:10:22;;;;;;;45.33;22.97;;;6.90;99.90;;;;;;5012809;28;20038;-79
2022/11/21 11:15:38;;;;;;;47.57;22.43;;;7.00;99.90;;;;;;5012781;28;20060;-79
2022/11/21 11:18:04;;;;;;;44.90;23.93;;;7.10;99.90;;;;;;5013219;28;20030;-79
2022/11/21 11:20:39;;;;;;;44.67;23.90;;;7.10;99.90;;;;;;5011492;28;20053;-78
2022/11/21 11:23:21;;;;;;;;;;;7.20;99.90;;;;;;5011490;28;20117;-78
2022/11/21 11:25:49;;;;;;;42.87;21.23;;;7.20;99.90;;;;;;5011795;28;20012;-79
2022/11/21 11:28:18;;;;;;;45.57;22.33;;;7.40;99.90;;;;;;5013359;28;20022;-78
2022/11/21 11:30:44;;;;;;;40.77;21.27;;;7.40;99.90;;;;;;5027313;28;20636;-78
2022/11/21 11:33:52;;;;;;;42.53;21.33;;;7.40;99.90;;;;;;5051917;28;20025;-78
2022/11/21 11:36:23;;;;;;;40.40;20.77;;;7.50;99.90;;;;;;4975383;28;20034;-78
2022/11/21 11:38:55;;;;;;;40.93;20.97;;;7.60;99.90;;;;;;5026933;28;20416;-78
2022/11/21 11:47:29;;;;;;;40.77;21.33;;;7.60;99.90;;;;;;5036216;28;20029;-78
2022/11/21 11:47:46;;;;;;;39.63;20.57;;;7.80;99.90;;;;;;5037070;28;20108;-78
2022/11/21 11:50:21;;;;;;;41.17;21.00;;;7.90;99.90;;;;;;5018017;28;20021;-78
2022/11/21 11:52:49;;;;;;;38.30;20.87;;;8.00;99.90;;;;;;5018191;28;20033;-78
2022/11/21 11:55:22;;;;;;;39.03;20.43;;;8.10;99.90;;;;;;5017850;28;20041;-79
2022/11/21 11:57:51;;;;;;;41.00;21.55;;;8.20;99.90;;;;;;5018178;28;20022;-78
2022/11/21 12:00:44;;;;;;;40.67;21.30;;;8.30;99.90;;;;;;5018163;28;20420;-78
2022/11/21 12:03:37;;;;;;;38.97;20.27;;;8.30;99.90;;;;;;5035396;28;20050;-78
2022/11/21 12:06:09;;;;;;;36.30;19.77;;;8.50;99.90;;;;;;5035617;28;20029;-78
2022/11/21 12:08:47;;;;;;;34.80;19.53;;;8.50;99.90;;;;;;5017981;28;20021;-78
2022/11/21 12:17:16;;;;;;;30.63;18.13;;;8.70;99.90;;;;;;5036148;28;20039;-79
2022/11/21 12:19:42;;;;;;;27.87;17.10;;;8.80;99.90;;;;;;5017731;28;20029;-78
2022/11/21 12:22:10;;;;;;;32.40;18.37;;;8.80;99.90;;;;;;5001637;28;20441;-78
2022/11/21 12:24:36;;;;;;;30.90;18.03;;;8.90;99.90;;;;;;5021300;28;20119;-79
2022/11/21 12:27:25;;;;;;;28.87;17.33;;;9.00;99.90;;;;;;5031872;28;20041;-78
2022/11/21 12:30:07;;;;;;;25.20;15.43;;;9.20;99.90;;;;;;5025567;28;20021;-80
2022/11/21 12:32:41;;;;;;;23.07;14.00;;;9.60;99.90;;;;;;5031545;28;20071;-78
2022/11/21 12:35:13;;;;;;;18.25;13.15;;;10.10;99.90;;;;;;5017278;28;20552;-79
2022/11/21 12:38:17;;;;;;;17.05;10.88;;;10.80;99.90;;;;;;5014712;28;20121;-79
2022/11/21 12:40:58;;;;;;;14.52;10.02;;;11.50;99.90;;;;;;5025426;28;20045;-79
2022/11/21 12:43:47;;;;;;;14.93;8.75;;;11.70;99.90;;;;;;5036449;28;20032;-79
2022/11/21 12:46:30;;;;;;;13.20;8.43;;;11.70;99.20;;;;;;5036989;28;20028;-80
2022/11/21 12:55:35;;;;;;;14.23;9.05;;;11.40;95.20;;;;;;5054236;28;20462;-76
2022/11/21 12:58:29;;;;;;;13.40;8.30;;;11.20;94.90;;;;;;5036261;28;20021;-77
2022/11/21 13:01:08;;;;;;;18.13;8.93;;;11.00;94.30;;;;;;5023354;28;20049;-76
2022/11/21 13:03:46;;;;;;;16.05;8.38;;;10.90;94.30;;;;;;5023232;28;20362;-76
2022/11/21 13:06:20;;;;;;;12.90;8.60;;;10.80;94.30;;;;;;5016708;28;20029;-76
2022/11/21 13:08:48;;;;;;;18.10;9.43;;;10.70;94.10;;;;;;5013502;28;20418;-76
2022/11/21 13:14:15;;;;;;;13.80;7.77;;;10.80;94.50;;;;;;5013977;28;20139;-76
2022/11/21 13:16:48;;;;;;;12.73;7.18;;;10.90;94.30;;;;;;5014492;28;20128;-76
2022/11/21 13:19:16;;;;;;;13.23;7.00;;;11.00;94.20;;;;;;5016167;28;20034;-76
2022/11/21 13:21:47;;;;;;;16.10;7.72;;;11.00;94.10;;;;;;5027685;28;20029;-76
2022/11/21 13:24:44;;;;;;;16.17;7.60;;;11.10;93.90;;;;;;5036096;28;20029;-76
2022/11/21 13:27:45;;;;;;;12.10;7.22;;;11.10;93.60;;;;;;5036344;28;20029;-76
2022/11/21 13:30:10;;;;;;;16.45;7.13;;;11.10;93.50;;;;;;4937706;29;20039;-76